map of UOX home
UOX - Airport
Location
City:  Oxford, Mississippi, United States
Name:University-Oxford Airport
ICAO:KUOX
IATA:UOX
FAA LID:UOX

Details
Type:Airport (Part 139 Class IV)
Use:Public/Civil
Latitude:3423'04"N (34.384333)
Longitude:8932'12"W (-89.536805)
Datum:WGS 1984
Elevation:452 ft (138 m)
Variation:1.68W (WMM2015v2 magnetic declination)
-0.08 annual change
Runways:1
Longest:5600 × 100 ft (1707 × 30.5 m), paved

Time
Time Zone:UTC-6 (DST-5)
Local Time:

Weather
METAR:KUOX 041415Z AUTO 18008KT 150V210 9SM BKN008 OVC013 14/13 A2996 RMK AO2

Related Locations
Nearby:
Farthest:YAUG: 11036 mi / 17760 km
Augusta [Augusta Airport], WA, AU

Find:

   beyond  
but within

Other Information
Maps:
NOTAMs:
Links:
Sources:

  
  • flag of United States
  • flag of Mississippi
  

Sectional Chart

Flight Planning
at skyvector.com

Satellite Image

Google Maps Satellite view

 

Copyright © 2004-2019 Karl L. Swartz. All rights reserved.
The Great Circle Mapper name and logo are trademarks of the Great Circle Mapper.
All other trademarks mentioned herein belong to their respective owners.
Please see credits for attibutions and further copyright information.

  Follow gcmap on Facebook Follow gcmap on Twitter GCmap on LinkedIn

hCard Microformat

Geo Microformat